KAL1234 RKSI-RKPC
Flight info
| Callsign | KAL1234 |
|---|---|
| Flight time | 0h 39m |
| Altitude | 24000 |
| Route | BOPTA Z51 BEDES Y711 DOTOL |
| Aircraft | A21N/M-VGDW/C |
Departure
| Time | 2026-05-01 11:08 |
|---|---|
| Airport | Incheon International Airport (RKSI) |
Arrival
| Time | 2026-05-01 11:47 |
|---|---|
| Airport | Jeju International Airport (RKPC) |
| Time | Latitude | Longitude | Altitude | Speed | Heading |
|---|---|---|---|---|---|
| 2026-05-01 10:39 | 37.44558 | 126.44705 | 11 ft | 0 kts | 75° |
| 2026-05-01 10:50 | 37.44556 | 126.44699 | 38 ft | 2 kts | 74° |
| 2026-05-01 10:50 | 37.44551 | 126.44676 | 36 ft | 3 kts | 71° |
| 2026-05-01 10:51 | 37.44544 | 126.44652 | 38 ft | 3 kts | 66° |
| 2026-05-01 10:51 | 37.44535 | 126.44629 | 38 ft | 3 kts | 58° |
| 2026-05-01 10:51 | 37.44523 | 126.44609 | 38 ft | 3 kts | 40° |
| 2026-05-01 10:51 | 37.44509 | 126.44599 | 38 ft | 3 kts | 359° |
| 2026-05-01 10:52 | 37.44502 | 126.44600 | 38 ft | 1 kts | 340° |
| 2026-05-01 10:54 | 37.44507 | 126.44597 | 38 ft | 2 kts | 340° |
| 2026-05-01 10:54 | 37.44533 | 126.44581 | 38 ft | 6 kts | 331° |
| 2026-05-01 10:55 | 37.44537 | 126.44578 | 38 ft | 0 kts | 330° |
| 2026-05-01 10:55 | 37.44538 | 126.44577 | 38 ft | 1 kts | 324° |
| 2026-05-01 10:55 | 37.44543 | 126.44569 | 37 ft | 1 kts | 296° |
| 2026-05-01 10:55 | 37.44546 | 126.44554 | 38 ft | 1 kts | 278° |
| 2026-05-01 10:56 | 37.44547 | 126.44533 | 38 ft | 0 kts | 264° |
| 2026-05-01 10:56 | 37.44544 | 126.44518 | 38 ft | 4 kts | 248° |
| 2026-05-01 10:56 | 37.44543 | 126.44515 | 38 ft | 0 kts | 246° |
| 2026-05-01 10:57 | 37.44542 | 126.44513 | 38 ft | 1 kts | 245° |
| 2026-05-01 10:57 | 37.44536 | 126.44495 | 38 ft | 0 kts | 244° |
| 2026-05-01 10:58 | 37.44531 | 126.44484 | 36 ft | 3 kts | 246° |
| 2026-05-01 10:59 | 37.44531 | 126.44483 | 36 ft | 0 kts | 246° |
| 2026-05-01 10:59 | 37.44526 | 126.44472 | 37 ft | 3 kts | 236° |
| 2026-05-01 10:59 | 37.44519 | 126.44460 | 37 ft | 0 kts | 232° |
| 2026-05-01 11:00 | 37.44515 | 126.44454 | 38 ft | 3 kts | 226° |
| 2026-05-01 11:00 | 37.44496 | 126.44425 | 37 ft | 6 kts | 232° |
| 2026-05-01 11:00 | 37.44487 | 126.44411 | 38 ft | 0 kts | 232° |
| 2026-05-01 11:00 | 37.44486 | 126.44409 | 38 ft | 1 kts | 232° |
| 2026-05-01 11:01 | 37.44474 | 126.44387 | 38 ft | 5 kts | 235° |
| 2026-05-01 11:01 | 37.44447 | 126.44338 | 38 ft | 9 kts | 235° |
| 2026-05-01 11:01 | 37.44423 | 126.44295 | 38 ft | 2 kts | 234° |
| 2026-05-01 11:01 | 37.44422 | 126.44293 | 38 ft | 0 kts | 234° |
| 2026-05-01 11:04 | 37.44417 | 126.44285 | 38 ft | 3 kts | 234° |
| 2026-05-01 11:04 | 37.44399 | 126.44252 | 38 ft | 6 kts | 234° |
| 2026-05-01 11:04 | 37.44373 | 126.44190 | 37 ft | 10 kts | 263° |
| 2026-05-01 11:05 | 37.44412 | 126.44112 | 37 ft | 3 kts | 323° |
| 2026-05-01 11:05 | 37.44413 | 126.44112 | 37 ft | 0 kts | 323° |
| 2026-05-01 11:07 | 37.44414 | 126.44110 | 38 ft | 2 kts | 323° |
| 2026-05-01 11:07 | 37.44610 | 126.43936 | 36 ft | 96 kts | 323° |
| 2026-05-01 11:07 | 37.45442 | 126.43208 | 448 ft | 170 kts | 320° |
| 2026-05-01 11:08 | 37.46412 | 126.42322 | 1518 ft | 186 kts | 319° |
| 2026-05-01 11:08 | 37.47541 | 126.41297 | 2483 ft | 211 kts | 321° |
| 2026-05-01 11:08 | 37.49527 | 126.38362 | 5049 ft | 228 kts | 305° |
| 2026-05-01 11:09 | 37.50281 | 126.36589 | 6421 ft | 234 kts | 290° |
| 2026-05-01 11:09 | 37.50541 | 126.34465 | 7417 ft | 257 kts | 275° |
| 2026-05-01 11:09 | 37.50562 | 126.32173 | 8610 ft | 266 kts | 274° |
| 2026-05-01 11:10 | 37.50627 | 126.27366 | 10638 ft | 300 kts | 275° |
| 2026-05-01 11:10 | 37.50615 | 126.24602 | 11094 ft | 334 kts | 269° |
| 2026-05-01 11:10 | 37.50084 | 126.21623 | 11605 ft | 364 kts | 253° |
| 2026-05-01 11:10 | 37.48826 | 126.18783 | 12515 ft | 380 kts | 238° |
| 2026-05-01 11:11 | 37.46968 | 126.16344 | 13510 ft | 393 kts | 223° |
| 2026-05-01 11:11 | 37.44600 | 126.14530 | 14316 ft | 407 kts | 208° |
| 2026-05-01 11:11 | 37.41857 | 126.13501 | 14781 ft | 415 kts | 194° |
| 2026-05-01 11:11 | 37.38958 | 126.13215 | 15517 ft | 424 kts | 180° |
| 2026-05-01 11:12 | 37.36077 | 126.13914 | 16351 ft | 432 kts | 163° |
| 2026-05-01 11:12 | 37.33364 | 126.15598 | 17155 ft | 439 kts | 149° |
| 2026-05-01 11:12 | 37.30770 | 126.17684 | 17847 ft | 447 kts | 147° |
| 2026-05-01 11:12 | 37.28139 | 126.19805 | 18562 ft | 452 kts | 148° |
| 2026-05-01 11:13 | 37.25460 | 126.21923 | 19207 ft | 459 kts | 149° |
| 2026-05-01 11:13 | 37.22718 | 126.24062 | 19734 ft | 468 kts | 149° |
| 2026-05-01 11:13 | 37.19926 | 126.26211 | 19959 ft | 473 kts | 149° |
| 2026-05-01 11:13 | 37.17116 | 126.28371 | 19991 ft | 474 kts | 149° |
| 2026-05-01 11:14 | 37.14291 | 126.30531 | 20377 ft | 477 kts | 149° |
| 2026-05-01 11:14 | 37.11492 | 126.32684 | 21071 ft | 481 kts | 149° |
| 2026-05-01 11:14 | 37.08621 | 126.34882 | 21782 ft | 487 kts | 150° |
| 2026-05-01 11:14 | 37.05696 | 126.37094 | 22456 ft | 494 kts | 150° |
| 2026-05-01 11:15 | 37.02730 | 126.39342 | 23071 ft | 502 kts | 150° |
| 2026-05-01 11:15 | 36.99728 | 126.41624 | 23664 ft | 510 kts | 150° |
| 2026-05-01 11:15 | 36.96673 | 126.43956 | 23914 ft | 519 kts | 150° |
| 2026-05-01 11:15 | 36.93547 | 126.46337 | 23987 ft | 533 kts | 150° |
| 2026-05-01 11:16 | 36.90370 | 126.48761 | 24006 ft | 535 kts | 150° |
| 2026-05-01 11:16 | 36.87200 | 126.51178 | 24006 ft | 535 kts | 150° |
| 2026-05-01 11:16 | 36.84020 | 126.53601 | 23995 ft | 536 kts | 150° |
| 2026-05-01 11:16 | 36.80874 | 126.55987 | 23986 ft | 535 kts | 150° |
| 2026-05-01 11:17 | 36.77687 | 126.58397 | 24014 ft | 536 kts | 150° |
| 2026-05-01 11:17 | 36.74483 | 126.60750 | 24004 ft | 535 kts | 154° |
| 2026-05-01 11:17 | 36.71091 | 126.62615 | 23956 ft | 530 kts | 166° |
| 2026-05-01 11:17 | 36.67537 | 126.63796 | 23946 ft | 527 kts | 170° |
| 2026-05-01 11:18 | 36.63979 | 126.64880 | 23938 ft | 527 kts | 170° |
| 2026-05-01 11:18 | 36.60421 | 126.66005 | 23904 ft | 528 kts | 169° |
| 2026-05-01 11:18 | 36.56917 | 126.67160 | 23926 ft | 528 kts | 169° |
| 2026-05-01 11:18 | 36.53372 | 126.68346 | 23937 ft | 528 kts | 169° |
| 2026-05-01 11:19 | 36.49826 | 126.69533 | 23916 ft | 528 kts | 168° |
| 2026-05-01 11:19 | 36.46280 | 126.70720 | 23924 ft | 528 kts | 169° |
| 2026-05-01 11:19 | 36.42735 | 126.71904 | 23944 ft | 528 kts | 169° |
| 2026-05-01 11:19 | 36.39190 | 126.73088 | 23969 ft | 528 kts | 169° |
| 2026-05-01 11:20 | 36.35634 | 126.74273 | 23958 ft | 528 kts | 168° |
| 2026-05-01 11:20 | 36.32096 | 126.75470 | 23953 ft | 529 kts | 168° |
| 2026-05-01 11:20 | 36.28534 | 126.76673 | 23946 ft | 530 kts | 168° |
| 2026-05-01 11:20 | 36.24982 | 126.77871 | 23945 ft | 530 kts | 168° |
| 2026-05-01 11:21 | 36.21426 | 126.79071 | 23950 ft | 530 kts | 168° |
| 2026-05-01 11:21 | 36.17868 | 126.80254 | 23952 ft | 529 kts | 169° |
| 2026-05-01 11:21 | 36.14309 | 126.80956 | 23937 ft | 521 kts | 182° |
| 2026-05-01 11:21 | 36.10720 | 126.80792 | 23965 ft | 514 kts | 191° |
| 2026-05-01 11:22 | 36.07163 | 126.80384 | 23965 ft | 513 kts | 191° |
| 2026-05-01 11:22 | 36.03610 | 126.79967 | 23965 ft | 513 kts | 191° |
| 2026-05-01 11:22 | 36.00057 | 126.79565 | 23965 ft | 513 kts | 191° |
| 2026-05-01 11:22 | 35.96495 | 126.79174 | 23942 ft | 512 kts | 191° |
| 2026-05-01 11:23 | 35.92955 | 126.78793 | 23960 ft | 511 kts | 191° |
| 2026-05-01 11:23 | 35.89409 | 126.78410 | 23963 ft | 511 kts | 191° |
| 2026-05-01 11:23 | 35.85864 | 126.78021 | 23966 ft | 511 kts | 191° |
| 2026-05-01 11:23 | 35.82370 | 126.77635 | 23979 ft | 511 kts | 191° |
| 2026-05-01 11:24 | 35.78826 | 126.77250 | 23968 ft | 511 kts | 191° |
| 2026-05-01 11:24 | 35.75291 | 126.76872 | 23974 ft | 510 kts | 191° |
| 2026-05-01 11:24 | 35.68226 | 126.76105 | 23986 ft | 510 kts | 191° |
| 2026-05-01 11:25 | 35.64688 | 126.75728 | 23986 ft | 510 kts | 191° |
| 2026-05-01 11:25 | 35.57631 | 126.74972 | 23961 ft | 508 kts | 191° |
| 2026-05-01 11:25 | 35.54123 | 126.74600 | 23977 ft | 501 kts | 191° |
| 2026-05-01 11:26 | 35.50686 | 126.74234 | 23985 ft | 504 kts | 191° |
| 2026-05-01 11:26 | 35.43705 | 126.73482 | 23986 ft | 504 kts | 191° |
| 2026-05-01 11:26 | 35.40218 | 126.73108 | 23985 ft | 504 kts | 191° |
| 2026-05-01 11:27 | 35.36722 | 126.72736 | 23977 ft | 502 kts | 191° |
| 2026-05-01 11:27 | 35.33244 | 126.72361 | 23998 ft | 502 kts | 191° |
| 2026-05-01 11:27 | 35.29759 | 126.71990 | 24003 ft | 502 kts | 191° |
| 2026-05-01 11:27 | 35.26278 | 126.71620 | 23998 ft | 502 kts | 191° |
| 2026-05-01 11:28 | 35.22795 | 126.71251 | 24001 ft | 502 kts | 191° |
| 2026-05-01 11:28 | 35.19317 | 126.70882 | 23974 ft | 501 kts | 191° |
| 2026-05-01 11:28 | 35.15902 | 126.70519 | 23984 ft | 499 kts | 191° |
| 2026-05-01 11:29 | 35.08991 | 126.69782 | 24005 ft | 498 kts | 191° |
| 2026-05-01 11:29 | 35.05537 | 126.69413 | 24004 ft | 498 kts | 191° |
| 2026-05-01 11:29 | 34.98630 | 126.68678 | 24018 ft | 498 kts | 191° |
| 2026-05-01 11:30 | 34.95174 | 126.68315 | 24004 ft | 498 kts | 191° |
| 2026-05-01 11:30 | 34.91724 | 126.67951 | 24002 ft | 498 kts | 191° |
| 2026-05-01 11:30 | 34.88272 | 126.67590 | 23999 ft | 498 kts | 190° |
| 2026-05-01 11:30 | 34.84828 | 126.67591 | 23995 ft | 505 kts | 182° |
| 2026-05-01 11:31 | 34.81322 | 126.67868 | 23995 ft | 505 kts | 181° |
| 2026-05-01 11:31 | 34.77816 | 126.68163 | 23987 ft | 504 kts | 181° |
| 2026-05-01 11:31 | 34.74320 | 126.68435 | 24000 ft | 504 kts | 182° |
| 2026-05-01 11:31 | 34.70821 | 126.68689 | 23997 ft | 504 kts | 182° |
| 2026-05-01 11:32 | 34.67320 | 126.68936 | 23997 ft | 504 kts | 182° |
| 2026-05-01 11:32 | 34.63827 | 126.69178 | 23999 ft | 503 kts | 182° |
| 2026-05-01 11:32 | 34.60331 | 126.69422 | 24003 ft | 503 kts | 182° |
| 2026-05-01 11:32 | 34.56911 | 126.69664 | 23856 ft | 489 kts | 182° |
| 2026-05-01 11:33 | 34.53543 | 126.69907 | 23139 ft | 480 kts | 182° |
| 2026-05-01 11:33 | 34.50216 | 126.70142 | 22114 ft | 476 kts | 181° |
| 2026-05-01 11:33 | 34.46928 | 126.70373 | 22600 ft | 475 kts | 182° |
| 2026-05-01 11:33 | 34.43611 | 126.70604 | 23343 ft | 480 kts | 182° |
| 2026-05-01 11:34 | 34.40264 | 126.70841 | 23772 ft | 483 kts | 182° |
| 2026-05-01 11:34 | 34.36904 | 126.71074 | 23933 ft | 484 kts | 182° |
| 2026-05-01 11:34 | 34.33518 | 126.71304 | 24003 ft | 487 kts | 182° |
| 2026-05-01 11:34 | 34.30195 | 126.71541 | 23190 ft | 475 kts | 182° |
| 2026-05-01 11:35 | 34.26875 | 126.71769 | 21566 ft | 482 kts | 181° |
| 2026-05-01 11:35 | 34.23570 | 126.71997 | 20467 ft | 479 kts | 181° |
| 2026-05-01 11:35 | 34.20284 | 126.72230 | 19738 ft | 466 kts | 181° |
| 2026-05-01 11:35 | 34.17113 | 126.72460 | 19263 ft | 445 kts | 181° |
| 2026-05-01 11:36 | 34.14122 | 126.72674 | 18786 ft | 417 kts | 182° |
| 2026-05-01 11:36 | 34.11300 | 126.72874 | 18362 ft | 395 kts | 182° |
| 2026-05-01 11:36 | 34.08625 | 126.73058 | 17829 ft | 377 kts | 182° |
| 2026-05-01 11:36 | 34.06055 | 126.73238 | 17298 ft | 362 kts | 182° |
| 2026-05-01 11:37 | 34.03574 | 126.73408 | 16613 ft | 354 kts | 181° |
| 2026-05-01 11:37 | 34.01121 | 126.73573 | 15816 ft | 352 kts | 181° |
| 2026-05-01 11:37 | 33.98691 | 126.73737 | 15065 ft | 348 kts | 180° |
| 2026-05-01 11:37 | 33.96318 | 126.73900 | 14373 ft | 344 kts | 180° |
| 2026-05-01 11:38 | 33.93936 | 126.74066 | 13669 ft | 341 kts | 180° |
| 2026-05-01 11:38 | 33.91577 | 126.74227 | 12899 ft | 337 kts | 179° |
| 2026-05-01 11:38 | 33.89250 | 126.74387 | 12165 ft | 333 kts | 178° |
| 2026-05-01 11:38 | 33.86954 | 126.74544 | 11473 ft | 329 kts | 178° |
| 2026-05-01 11:39 | 33.84663 | 126.74701 | 10508 ft | 333 kts | 176° |
| 2026-05-01 11:39 | 33.82301 | 126.74862 | 9192 ft | 346 kts | 176° |
| 2026-05-01 11:39 | 33.79875 | 126.75033 | 7909 ft | 352 kts | 176° |
| 2026-05-01 11:39 | 33.77423 | 126.75202 | 6691 ft | 354 kts | 177° |
| 2026-05-01 11:40 | 33.75005 | 126.75367 | 5585 ft | 350 kts | 178° |
| 2026-05-01 11:40 | 33.72613 | 126.75533 | 4798 ft | 337 kts | 178° |
| 2026-05-01 11:40 | 33.70344 | 126.75689 | 4356 ft | 316 kts | 178° |
| 2026-05-01 11:40 | 33.68196 | 126.75837 | 4172 ft | 303 kts | 178° |
| 2026-05-01 11:41 | 33.66149 | 126.75826 | 4041 ft | 285 kts | 193° |
| 2026-05-01 11:41 | 33.64424 | 126.74913 | 3901 ft | 263 kts | 222° |
| 2026-05-01 11:41 | 33.63242 | 126.73354 | 3796 ft | 245 kts | 239° |
| 2026-05-01 11:41 | 33.62386 | 126.71653 | 3684 ft | 232 kts | 245° |
| 2026-05-01 11:42 | 33.61643 | 126.69984 | 3485 ft | 225 kts | 246° |
| 2026-05-01 11:42 | 33.60899 | 126.68352 | 3271 ft | 219 kts | 244° |
| 2026-05-01 11:42 | 33.60168 | 126.66818 | 3133 ft | 209 kts | 244° |
| 2026-05-01 11:42 | 33.59469 | 126.65344 | 2938 ft | 202 kts | 243° |
| 2026-05-01 11:43 | 33.58755 | 126.63934 | 2695 ft | 194 kts | 247° |
| 2026-05-01 11:43 | 33.58037 | 126.62580 | 2483 ft | 189 kts | 244° |
| 2026-05-01 11:43 | 33.57360 | 126.61259 | 2284 ft | 183 kts | 244° |
| 2026-05-01 11:44 | 33.56143 | 126.58880 | 1906 ft | 133 kts | 242° |
| 2026-05-01 11:44 | 33.55692 | 126.57997 | 1704 ft | 119 kts | 240° |
| 2026-05-01 11:44 | 33.55262 | 126.57156 | 1518 ft | 117 kts | 240° |
| 2026-05-01 11:44 | 33.54842 | 126.56332 | 1370 ft | 116 kts | 240° |
| 2026-05-01 11:45 | 33.54421 | 126.55509 | 1217 ft | 116 kts | 239° |
| 2026-05-01 11:45 | 33.54003 | 126.54676 | 1074 ft | 117 kts | 243° |
| 2026-05-01 11:45 | 33.53575 | 126.53862 | 921 ft | 113 kts | 242° |
| 2026-05-01 11:45 | 33.53154 | 126.53067 | 818 ft | 113 kts | 242° |
| 2026-05-01 11:46 | 33.52751 | 126.52263 | 619 ft | 113 kts | 244° |
| 2026-05-01 11:46 | 33.52346 | 126.51461 | 450 ft | 113 kts | 242° |
| 2026-05-01 11:46 | 33.51929 | 126.50646 | 327 ft | 116 kts | 241° |
| 2026-05-01 11:46 | 33.51518 | 126.49822 | 169 ft | 115 kts | 240° |
| 2026-05-01 11:47 | 33.51131 | 126.49072 | 96 ft | 90 kts | 239° |
| 2026-05-01 11:47 | 33.50926 | 126.48667 | 98 ft | 47 kts | 236° |
| 2026-05-01 11:47 | 33.50782 | 126.48366 | 97 ft | 13 kts | 230° |
| 2026-05-01 11:47 | 33.50738 | 126.48311 | 100 ft | 11 kts | 228° |
| 2026-05-01 11:48 | 33.50673 | 126.48238 | 98 ft | 15 kts | 218° |
| 2026-05-01 11:48 | 33.50577 | 126.48169 | 97 ft | 16 kts | 202° |
| 2026-05-01 11:48 | 33.50521 | 126.48252 | 99 ft | 19 kts | 62° |
| 2026-05-01 11:48 | 33.50586 | 126.48384 | 97 ft | 11 kts | 58° |
| 2026-05-01 11:49 | 33.50633 | 126.48476 | 98 ft | 14 kts | 58° |
| 2026-05-01 11:49 | 33.50692 | 126.48589 | 98 ft | 17 kts | 58° |
| 2026-05-01 11:49 | 33.50759 | 126.48721 | 95 ft | 20 kts | 58° |
| 2026-05-01 11:49 | 33.50769 | 126.48868 | 95 ft | 18 kts | 157° |
| 2026-05-01 11:50 | 33.50723 | 126.48902 | 94 ft | 6 kts | 140° |
| 2026-05-01 11:50 | 33.50684 | 126.48954 | 95 ft | 10 kts | 146° |
| 2026-05-01 11:50 | 33.50644 | 126.48983 | 96 ft | 1 kts | 149° |
| 2026-05-01 11:50 | 33.50639 | 126.48986 | 97 ft | 0 kts | 148° |